TimeCDT,TemperatureF,Dew PointF,Humidity,Sea Level PressureIn,VisibilityMPH,Wind Direction,Wind SpeedMPH,Gust SpeedMPH,PrecipitationIn,Events,Conditions,WindDirDegrees,DateUTC
12:52 AM,39.0,35.1,86,30.22,10.0,Calm,Calm,-,N/A,,Clear,0,2011-11-01 05:52:00
1:52 AM,37.9,35.1,89,30.22,10.0,Calm,Calm,-,N/A,,Clear,0,2011-11-01 06:52:00
2:52 AM,36.0,34.0,93,30.22,10.0,ESE,3.5,-,N/A,,Clear,120,2011-11-01 07:52:00
3:52 AM,37.0,35.1,93,30.23,10.0,Calm,Calm,-,N/A,,Clear,0,2011-11-01 08:52:00
4:52 AM,34.0,33.1,96,30.24,10.0,ESE,3.5,-,N/A,,Clear,110,2011-11-01 09:52:00
5:52 AM,35.1,33.1,92,30.25,10.0,Calm,Calm,-,N/A,,Clear,0,2011-11-01 10:52:00
6:52 AM,34.0,33.1,96,30.26,10.0,Calm,Calm,-,N/A,,Clear,0,2011-11-01 11:52:00
7:52 AM,35.1,34.0,96,30.28,10.0,ESE,4.6,-,N/A,,Clear,120,2011-11-01 12:52:00
8:52 AM,43.0,37.0,80,30.30,10.0,Calm,Calm,-,N/A,,Clear,0,2011-11-01 13:52:00
9:52 AM,50.0,39.0,66,30.30,10.0,Calm,Calm,-,N/A,,Clear,0,2011-11-01 14:52:00
10:52 AM,57.9,37.0,46,30.31,10.0,SSW,6.9,-,N/A,,Clear,200,2011-11-01 15:52:00
11:52 AM,64.0,34.0,33,30.28,10.0,South,8.1,-,N/A,,Clear,190,2011-11-01 16:52:00
12:52 PM,66.9,33.1,28,30.26,10.0,South,10.4,-,N/A,,Clear,180,2011-11-01 17:52:00
2:52 PM,69.1,30.9,24,30.22,10.0,Calm,Calm,-,N/A,,Clear,0,2011-11-01 19:52:00
3:52 PM,70.0,33.1,26,30.21,10.0,SSE,8.1,-,N/A,,Clear,150,2011-11-01 20:52:00
4:52 PM,69.1,32.0,25,30.20,10.0,South,4.6,-,N/A,,Clear,170,2011-11-01 21:52:00
5:52 PM,63.0,30.9,30,30.20,10.0,SSE,5.8,-,N/A,,Clear,150,2011-11-01 22:52:00
6:52 PM,57.9,32.0,37,30.21,10.0,SSE,5.8,-,N/A,,Clear,150,2011-11-01 23:52:00
7:52 PM,55.9,32.0,40,30.22,10.0,SSE,4.6,-,N/A,,Clear,150,2011-11-02 00:52:00
8:52 PM,55.0,30.9,40,30.23,10.0,Calm,Calm,-,N/A,,Clear,0,2011-11-02 01:52:00
9:52 PM,50.0,32.0,50,30.22,10.0,SE,4.6,-,N/A,,Clear,140,2011-11-02 02:52:00
10:52 PM,48.0,33.1,56,30.22,10.0,SSE,3.5,-,N/A,,Clear,160,2011-11-02 03:52:00
11:52 PM,46.0,33.1,61,30.21,10.0,SSE,5.8,-,N/A,,Clear,150,2011-11-02 04:52:00